createdAt,value
2018-12-19T00:01:31.384Z,6.70
2018-12-19T00:04:01.421Z,6.70
2018-12-19T00:06:30.383Z,6.60
2018-12-19T00:09:03.178Z,6.50
2018-12-19T00:11:31.439Z,6.70
2018-12-19T00:14:00.424Z,6.60
2018-12-19T00:16:29.609Z,6.70
2018-12-19T00:18:58.619Z,6.70
2018-12-19T00:21:28.640Z,6.60
2018-12-19T00:23:57.635Z,6.50
2018-12-19T00:26:27.655Z,6.50
2018-12-19T00:28:56.569Z,6.60
2018-12-19T00:31:25.721Z,6.60
2018-12-19T00:33:54.665Z,6.70
2018-12-19T00:36:23.776Z,6.80
2018-12-19T00:38:53.822Z,6.80
2018-12-19T00:41:23.272Z,6.60
2018-12-19T00:43:52.218Z,6.50
2018-12-19T00:46:21.149Z,6.40
2018-12-19T00:48:50.124Z,6.70
2018-12-19T00:51:19.249Z,6.80
2018-12-19T00:53:48.233Z,6.70
2018-12-19T00:56:17.097Z,6.60
2018-12-19T00:58:46.276Z,6.50
2018-12-19T01:01:15.447Z,6.60
2018-12-19T01:03:44.370Z,6.60
2018-12-19T01:06:14.317Z,6.60
2018-12-19T01:08:43.194Z,6.50
2018-12-19T01:11:12.079Z,6.70
2018-12-19T01:13:45.277Z,6.70
2018-12-19T01:16:14.374Z,6.50
2018-12-19T01:18:43.234Z,6.50
2018-12-19T01:21:12.145Z,6.60
2018-12-19T01:23:45.014Z,6.40
2018-12-19T01:26:13.972Z,6.60
2018-12-19T01:28:42.909Z,6.60
2018-12-19T01:31:12.042Z,6.70
2018-12-19T01:33:40.931Z,6.80
2018-12-19T01:36:10.000Z,6.70
2018-12-19T01:38:38.870Z,6.60
2018-12-19T01:41:07.796Z,6.50
2018-12-19T01:43:36.863Z,6.60
2018-12-19T01:46:07.014Z,6.70
2018-12-19T01:48:35.976Z,6.60
2018-12-19T01:51:05.123Z,6.50
2018-12-19T01:53:34.273Z,6.50
2018-12-19T01:56:03.810Z,6.40
2018-12-19T01:58:32.861Z,6.50
2018-12-19T02:01:03.922Z,6.60
2018-12-19T02:03:32.999Z,6.50
2018-12-19T02:06:03.037Z,6.50
2018-12-19T02:08:32.013Z,6.40
2018-12-19T02:11:01.399Z,6.50
2018-12-19T02:13:30.353Z,6.50
2018-12-19T02:15:59.564Z,6.60
2018-12-19T02:18:28.493Z,6.60
2018-12-19T02:20:57.416Z,6.70
2018-12-19T02:23:26.273Z,6.70
2018-12-19T02:25:55.313Z,6.70
2018-12-19T02:28:25.184Z,6.60
2018-12-19T02:30:54.190Z,6.50
2018-12-19T02:33:37.735Z,6.40
2018-12-19T02:36:06.659Z,6.50
2018-12-19T02:38:35.558Z,6.70
2018-12-19T02:41:04.774Z,6.80
2018-12-19T02:43:33.706Z,6.80
2018-12-19T02:46:02.875Z,6.80
2018-12-19T02:48:31.942Z,6.90
2018-12-19T02:51:01.477Z,6.90
2018-12-19T02:53:30.598Z,6.80
2018-12-19T02:55:59.717Z,6.70
2018-12-19T02:58:28.677Z,6.60
2018-12-19T03:00:57.621Z,6.70
2018-12-19T03:03:26.724Z,6.80
2018-12-19T03:05:56.664Z,6.70
2018-12-19T03:08:25.595Z,6.80
2018-12-19T03:10:54.881Z,6.70
2018-12-19T03:13:23.769Z,6.90
2018-12-19T03:15:52.734Z,6.80
2018-12-19T03:18:21.867Z,6.60
2018-12-19T03:20:50.864Z,6.80
2018-12-19T03:23:19.890Z,6.70
2018-12-19T03:25:48.985Z,6.90
2018-12-19T03:28:17.953Z,7.10
2018-12-19T03:30:47.039Z,6.80
2018-12-19T03:33:15.961Z,6.70
2018-12-19T03:35:45.036Z,6.60
2018-12-19T03:38:18.132Z,6.70
2018-12-19T03:40:47.214Z,6.80
2018-12-19T03:43:16.090Z,6.80
2018-12-19T03:45:45.127Z,6.80
2018-12-19T03:48:18.289Z,6.70
2018-12-19T03:50:47.235Z,6.90
2018-12-19T03:53:16.256Z,6.70
2018-12-19T03:55:45.275Z,6.70
2018-12-19T03:58:14.352Z,6.70
2018-12-19T04:00:43.379Z,6.50
2018-12-19T04:03:12.265Z,6.50
2018-12-19T04:05:41.329Z,6.60
2018-12-19T04:08:10.333Z,6.50
2018-12-19T04:10:39.425Z,6.30
2018-12-19T04:13:08.609Z,6.20
2018-12-19T04:15:37.649Z,6.20
2018-12-19T04:18:06.619Z,6.20
2018-12-19T04:20:35.507Z,6.10
2018-12-19T04:23:04.399Z,6.10
2018-12-19T04:25:33.323Z,6.00
2018-12-19T04:28:02.531Z,5.90
2018-12-19T04:30:31.584Z,6.00
2018-12-19T04:33:00.664Z,5.90
2018-12-19T04:35:29.583Z,5.90
2018-12-19T04:37:58.609Z,5.80
2018-12-19T04:40:27.655Z,5.90
2018-12-19T04:42:56.646Z,5.90
2018-12-19T04:45:25.584Z,5.80
2018-12-19T04:47:54.614Z,5.80
2018-12-19T04:50:23.513Z,5.80
2018-12-19T04:52:53.467Z,5.70
2018-12-19T04:55:22.517Z,5.50
2018-12-19T04:57:51.510Z,5.70
2018-12-19T05:00:20.505Z,5.70
2018-12-19T05:02:49.427Z,5.60
2018-12-19T05:05:18.334Z,5.70
2018-12-19T05:07:48.693Z,5.70
2018-12-19T05:10:17.873Z,5.60
2018-12-19T05:12:46.890Z,5.50
2018-12-19T05:15:16.655Z,5.50
2018-12-19T05:17:45.758Z,5.60
2018-12-19T05:20:14.926Z,5.60
2018-12-19T05:22:43.994Z,5.50
2018-12-19T05:25:14.160Z,5.50
2018-12-19T05:27:43.166Z,5.80
2018-12-19T05:30:12.368Z,5.80
2018-12-19T05:32:41.332Z,5.70
2018-12-19T05:35:10.519Z,5.90
2018-12-19T05:37:39.510Z,6.00
2018-12-19T05:40:09.489Z,5.80
2018-12-19T05:42:38.598Z,5.80
2018-12-19T05:45:08.719Z,5.80
2018-12-19T05:47:37.898Z,5.80
2018-12-19T05:50:08.510Z,5.80
2018-12-19T05:52:38.742Z,5.80
2018-12-19T05:55:07.861Z,5.90
2018-12-19T05:57:37.098Z,5.80
2018-12-19T06:00:07.809Z,5.80
2018-12-19T06:02:36.833Z,5.70
2018-12-19T06:05:06.409Z,5.80
2018-12-19T06:07:36.187Z,5.90
2018-12-19T06:10:05.628Z,6.00
2018-12-19T06:12:34.546Z,5.90
2018-12-19T06:15:04.323Z,5.90
2018-12-19T06:17:33.260Z,5.70
2018-12-19T06:20:02.345Z,5.60
2018-12-19T06:22:31.450Z,5.60
2018-12-19T06:25:00.394Z,5.60
2018-12-19T06:27:29.411Z,5.60
2018-12-19T06:29:58.400Z,5.60
2018-12-19T06:32:27.298Z,5.60
2018-12-19T06:34:56.418Z,5.60
2018-12-19T06:37:25.450Z,5.80
2018-12-19T06:39:54.417Z,6.00
2018-12-19T06:42:23.437Z,5.80
2018-12-19T06:44:52.381Z,5.50
2018-12-19T06:47:21.456Z,5.50
2018-12-19T06:49:50.316Z,5.60
2018-12-19T06:52:19.320Z,5.50
2018-12-19T06:54:48.332Z,5.40
2018-12-19T06:57:17.310Z,5.30
2018-12-19T06:59:46.334Z,5.30
2018-12-19T07:02:15.351Z,5.50
2018-12-19T07:04:44.392Z,5.40
2018-12-19T07:07:14.482Z,5.60
2018-12-19T07:09:44.204Z,5.50
2018-12-19T07:12:13.122Z,5.30
2018-12-19T07:14:42.029Z,5.40
2018-12-19T07:17:11.150Z,5.40
2018-12-19T07:19:40.109Z,5.60
2018-12-19T07:22:08.986Z,5.50
2018-12-19T07:24:38.040Z,5.50
2018-12-19T07:27:06.997Z,5.50
2018-12-19T07:29:36.044Z,5.60
2018-12-19T07:32:04.980Z,5.70
2018-12-19T07:34:34.049Z,5.80
2018-12-19T07:37:02.973Z,5.60
2018-12-19T07:39:32.078Z,5.50
2018-12-19T07:42:01.485Z,5.50
2018-12-19T07:44:30.675Z,5.60
2018-12-19T07:46:59.787Z,5.60
2018-12-19T07:49:28.809Z,5.70
2018-12-19T07:51:57.983Z,5.80
2018-12-19T07:54:26.907Z,5.90
2018-12-19T07:56:55.963Z,5.90
2018-12-19T07:59:24.845Z,5.90
2018-12-19T08:01:53.931Z,5.80
2018-12-19T08:04:23.311Z,6.20
2018-12-19T08:06:52.516Z,6.20
2018-12-19T08:09:21.698Z,6.20
2018-12-19T08:11:50.861Z,6.00
2018-12-19T08:14:19.901Z,6.10
2018-12-19T08:16:49.171Z,6.10
2018-12-19T08:19:18.170Z,6.20
2018-12-19T08:21:47.098Z,6.20
2018-12-19T08:24:16.287Z,6.30
2018-12-19T08:26:45.291Z,6.20
2018-12-19T08:29:14.313Z,6.30
2018-12-19T08:31:43.569Z,6.20
2018-12-19T08:34:12.464Z,6.20
2018-12-19T08:36:41.936Z,6.30
2018-12-19T08:39:10.841Z,6.30
2018-12-19T08:41:40.525Z,6.20
2018-12-19T08:44:09.558Z,6.30
2018-12-19T08:46:38.398Z,6.50
2018-12-19T08:49:07.397Z,6.80
2018-12-19T08:51:36.377Z,6.90
2018-12-19T08:54:05.502Z,6.90
2018-12-19T08:56:34.414Z,6.70
2018-12-19T08:59:03.820Z,6.50
2018-12-19T09:01:32.873Z,6.70
2018-12-19T09:04:08.565Z,6.80
2018-12-19T09:06:37.559Z,6.90
2018-12-19T09:09:07.273Z,7.00
2018-12-19T09:11:36.477Z,6.90
2018-12-19T09:14:05.419Z,6.90
2018-12-19T09:16:34.410Z,7.00
2018-12-19T09:19:03.597Z,7.10
2018-12-19T09:21:32.599Z,7.10
2018-12-19T09:24:01.522Z,7.00
2018-12-19T09:26:30.478Z,7.00
2018-12-19T09:28:59.537Z,7.00
2018-12-19T09:31:28.458Z,6.90
2018-12-19T09:33:57.512Z,7.00
2018-12-19T09:36:26.539Z,7.10
2018-12-19T09:38:55.570Z,7.10
2018-12-19T09:41:24.581Z,7.00
2018-12-19T09:43:54.612Z,7.00
2018-12-19T09:46:23.450Z,7.10
2018-12-19T09:48:52.360Z,7.20
2018-12-19T09:51:21.325Z,7.20
2018-12-19T09:53:50.202Z,7.10
2018-12-19T09:56:19.083Z,7.00
2018-12-19T09:58:49.068Z,6.90
2018-12-19T10:01:17.936Z,7.00
2018-12-19T10:03:47.200Z,7.10
2018-12-19T10:06:16.046Z,7.00
2018-12-19T10:08:44.917Z,7.10
2018-12-19T10:11:18.717Z,7.10
2018-12-19T10:13:44.813Z,7.10
2018-12-19T10:16:13.653Z,7.10
2018-12-19T10:18:42.554Z,7.20
2018-12-19T10:21:11.413Z,7.50
2018-12-19T10:23:40.397Z,7.40
2018-12-19T10:26:12.411Z,7.50
2018-12-19T10:28:41.595Z,7.60
2018-12-19T10:31:10.753Z,7.60
2018-12-19T10:33:39.756Z,7.50
2018-12-19T10:36:08.778Z,7.60
2018-12-19T10:38:37.904Z,7.50
2018-12-19T10:41:06.940Z,7.60
2018-12-19T10:43:35.986Z,7.70
2018-12-19T10:46:05.314Z,7.80
2018-12-19T10:48:34.216Z,7.60
2018-12-19T10:51:04.080Z,7.90
2018-12-19T10:53:33.840Z,7.90
2018-12-19T10:56:03.005Z,7.70
2018-12-19T10:58:32.045Z,7.70
2018-12-19T11:01:01.906Z,7.60
2018-12-19T11:03:30.799Z,7.60
2018-12-19T11:05:59.990Z,7.60
2018-12-19T11:08:29.278Z,7.70
2018-12-19T11:10:58.346Z,7.70
2018-12-19T11:13:27.250Z,7.80
2018-12-19T11:15:56.154Z,7.80
2018-12-19T11:18:25.729Z,7.90
2018-12-19T11:20:54.886Z,7.90
2018-12-19T11:23:25.170Z,7.90
2018-12-19T11:25:54.174Z,8.00
2018-12-19T11:28:23.394Z,8.10
2018-12-19T11:30:52.397Z,8.30
2018-12-19T11:33:21.432Z,8.30
2018-12-19T11:35:50.560Z,8.30
2018-12-19T11:38:19.555Z,8.20
2018-12-19T11:40:49.772Z,8.30
2018-12-19T11:43:18.886Z,8.30
2018-12-19T11:45:47.887Z,8.30
2018-12-19T11:48:17.069Z,8.50
2018-12-19T11:50:46.059Z,8.60
2018-12-19T11:53:15.215Z,8.60
2018-12-19T11:55:44.299Z,8.70
2018-12-19T11:58:13.140Z,8.60
2018-12-19T12:00:42.056Z,8.60
2018-12-19T12:03:11.163Z,8.60
2018-12-19T12:05:40.370Z,8.50
2018-12-19T12:08:10.752Z,8.50
2018-12-19T12:10:39.713Z,8.50
2018-12-19T12:13:08.918Z,8.50
2018-12-19T12:15:37.998Z,8.20
2018-12-19T12:18:10.978Z,8.40
2018-12-19T12:20:39.988Z,8.30
2018-12-19T12:23:08.880Z,8.30
2018-12-19T12:25:37.800Z,8.20
2018-12-19T12:28:06.722Z,8.20
2018-12-19T12:30:35.602Z,8.40
2018-12-19T12:33:06.871Z,8.30
2018-12-19T12:35:37.892Z,8.40
2018-12-19T12:38:07.010Z,8.30
2018-12-19T12:40:36.938Z,8.30
2018-12-19T12:43:06.501Z,8.30
2018-12-19T12:45:35.400Z,8.20
2018-12-19T12:48:04.419Z,8.20
2018-12-19T12:50:33.484Z,8.50
2018-12-19T12:53:02.638Z,8.60
2018-12-19T12:55:31.740Z,8.80
2018-12-19T12:58:00.652Z,8.60
2018-12-19T13:00:29.751Z,8.40
2018-12-19T13:02:58.831Z,8.50
2018-12-19T13:05:28.069Z,8.60
2018-12-19T13:07:57.197Z,8.70
2018-12-19T13:10:26.888Z,8.60
2018-12-19T13:12:55.887Z,8.60
2018-12-19T13:15:30.106Z,8.50
2018-12-19T13:17:59.177Z,8.70
2018-12-19T13:20:28.258Z,8.70
2018-12-19T13:22:57.357Z,8.50
2018-12-19T13:25:26.418Z,8.80
2018-12-19T13:27:55.560Z,8.70
2018-12-19T13:30:24.991Z,9.00
2018-12-19T13:32:54.135Z,8.80
2018-12-19T13:35:23.997Z,8.80
2018-12-19T13:37:54.683Z,8.90
2018-12-19T13:40:24.548Z,9.00
2018-12-19T13:42:54.144Z,9.00
2018-12-19T13:45:24.033Z,8.90
2018-12-19T13:47:54.141Z,8.90
2018-12-19T13:50:24.913Z,8.90
2018-12-19T13:52:54.554Z,8.90
2018-12-19T13:55:24.454Z,9.00
2018-12-19T13:57:54.493Z,8.90
2018-12-19T14:00:24.897Z,9.10
2018-12-19T14:02:55.339Z,8.80
2018-12-19T14:05:25.170Z,8.80
2018-12-19T14:07:54.303Z,8.80
2018-12-19T14:10:25.744Z,9.00
2018-12-19T14:12:56.168Z,9.00
2018-12-19T14:15:25.757Z,8.80
2018-12-19T14:17:55.793Z,8.80
2018-12-19T14:20:25.113Z,8.90
2018-12-19T14:22:57.576Z,8.90
2018-12-19T14:25:27.338Z,9.10
2018-12-19T14:27:56.656Z,9.00
2018-12-19T14:30:25.801Z,9.00
2018-12-19T14:32:54.895Z,9.10
2018-12-19T14:35:24.907Z,8.90
2018-12-19T14:37:54.900Z,8.90
2018-12-19T14:40:23.839Z,8.90
2018-12-19T14:42:53.711Z,8.90
2018-12-19T14:45:22.923Z,8.90
2018-12-19T14:47:52.456Z,8.90
2018-12-19T14:50:21.633Z,8.80
2018-12-19T14:52:50.588Z,8.90
2018-12-19T14:55:19.858Z,8.90
2018-12-19T14:57:49.414Z,8.90
2018-12-19T15:00:19.246Z,9.00
2018-12-19T15:02:48.295Z,8.70
2018-12-19T15:05:17.418Z,8.50
2018-12-19T15:07:46.406Z,8.60
2018-12-19T15:10:15.422Z,8.60
2018-12-19T15:12:44.446Z,8.80
2018-12-19T15:15:14.166Z,8.80
2018-12-19T15:17:43.265Z,8.80
2018-12-19T15:20:12.226Z,8.80
2018-12-19T15:22:44.243Z,8.80
2018-12-19T15:25:13.265Z,8.80
2018-12-19T15:27:42.152Z,8.90
2018-12-19T15:30:11.071Z,8.90
2018-12-19T15:32:40.290Z,8.90
2018-12-19T15:35:09.713Z,8.90
2018-12-19T15:37:38.626Z,8.80
2018-12-19T15:40:08.085Z,8.80
2018-12-19T15:42:39.713Z,8.70
2018-12-19T15:45:10.199Z,8.60
2018-12-19T15:47:39.288Z,8.60
2018-12-19T15:50:08.813Z,8.50
2018-12-19T15:52:37.799Z,8.60
2018-12-19T15:55:06.769Z,8.70
2018-12-19T23:04:51.102Z,8.30
2018-12-19T23:07:20.083Z,8.20
2018-12-19T23:09:49.276Z,8.00
2018-12-19T23:12:19.568Z,8.10
2018-12-19T23:14:48.637Z,8.20
2018-12-19T23:17:22.838Z,8.10
2018-12-19T23:19:52.159Z,8.10
2018-12-19T23:22:21.089Z,8.10
2018-12-19T23:24:49.955Z,8.10
2018-12-19T23:27:19.274Z,8.00
2018-12-19T23:29:49.186Z,8.10
2018-12-19T23:32:22.574Z,7.90
2018-12-19T23:34:52.460Z,8.00
2018-12-19T23:37:21.630Z,8.00
2018-12-19T23:39:50.883Z,7.90
2018-12-19T23:42:19.905Z,7.90
2018-12-19T23:44:48.796Z,7.90
2018-12-19T23:47:17.750Z,8.00
2018-12-19T23:49:46.636Z,7.90
2018-12-19T23:52:15.660Z,8.00
2018-12-19T23:54:45.028Z,7.90
2018-12-19T23:57:13.993Z,8.00
2018-12-19T23:59:43.777Z,7.90
